sensor_id;sensor_type;location;lat;lon;timestamp;pressure;altitude;pressure_sealevel;temperature;humidity
13434;BME280;6789;47.678;9.158;2023-04-04T00:03:13;97279.84;;;1.86;69.21
13434;BME280;6789;47.678;9.158;2023-04-04T00:08:05;97277.72;;;1.82;69.89
13434;BME280;6789;47.678;9.158;2023-04-04T00:12:57;97277.84;;;1.72;70.22
13434;BME280;6789;47.678;9.158;2023-04-04T00:17:49;97273.63;;;1.63;70.31
13434;BME280;6789;47.678;9.158;2023-04-04T00:22:42;97258.25;;;1.62;70.11
13434;BME280;6789;47.678;9.158;2023-04-04T00:27:34;97260.97;;;1.52;70.86
13434;BME280;6789;47.678;9.158;2023-04-04T00:32:28;97263.88;;;1.49;70.93
13434;BME280;6789;47.678;9.158;2023-04-04T00:37:22;97260.84;;;1.54;69.55
13434;BME280;6789;47.678;9.158;2023-04-04T00:42:14;97262.09;;;1.50;69.55
13434;BME280;6789;47.678;9.158;2023-04-04T00:47:05;97257.72;;;1.42;69.68
13434;BME280;6789;47.678;9.158;2023-04-04T00:51:57;97256.53;;;1.37;70.33
13434;BME280;6789;47.678;9.158;2023-04-04T00:56:50;97252.81;;;1.32;70.11
13434;BME280;6789;47.678;9.158;2023-04-04T01:01:45;97256.66;;;1.28;70.08
13434;BME280;6789;47.678;9.158;2023-04-04T01:06:37;97259.25;;;1.28;69.90
13434;BME280;6789;47.678;9.158;2023-04-04T01:11:29;97251.81;;;1.25;69.92
13434;BME280;6789;47.678;9.158;2023-04-04T01:16:21;97247.78;;;1.22;69.74
13434;BME280;6789;47.678;9.158;2023-04-04T01:21:15;97244.69;;;1.19;69.95
13434;BME280;6789;47.678;9.158;2023-04-04T01:26:09;97260.81;;;1.13;70.23
13434;BME280;6789;47.678;9.158;2023-04-04T01:31:01;97260.13;;;1.11;70.19
13434;BME280;6789;47.678;9.158;2023-04-04T01:36:09;97244.75;;;1.01;70.61
13434;BME280;6789;47.678;9.158;2023-04-04T01:41:09;97239.25;;;0.96;70.84
13434;BME280;6789;47.678;9.158;2023-04-04T01:46:02;97234.25;;;0.95;70.65
13434;BME280;6789;47.678;9.158;2023-04-04T01:50:55;97240.66;;;0.91;70.08
13434;BME280;6789;47.678;9.158;2023-04-04T01:55:47;97243.22;;;0.91;70.95
13434;BME280;6789;47.678;9.158;2023-04-04T02:00:39;97258.22;;;0.87;70.78
13434;BME280;6789;47.678;9.158;2023-04-04T02:05:31;97250.94;;;0.83;70.96
13434;BME280;6789;47.678;9.158;2023-04-04T02:10:22;97262.97;;;0.74;71.39
13434;BME280;6789;47.678;9.158;2023-04-04T02:15:14;97252.19;;;0.79;70.71
13434;BME280;6789;47.678;9.158;2023-04-04T02:20:07;97248.38;;;0.83;71.56
13434;BME280;6789;47.678;9.158;2023-04-04T02:24:58;97245.66;;;0.67;71.63
13434;BME280;6789;47.678;9.158;2023-04-04T02:29:53;97233.53;;;0.60;72.23
13434;BME280;6789;47.678;9.158;2023-04-04T02:34:45;97230.78;;;0.61;71.64
13434;BME280;6789;47.678;9.158;2023-04-04T02:39:38;97227.69;;;0.58;72.08
13434;BME280;6789;47.678;9.158;2023-04-04T02:44:29;97229.47;;;0.57;72.14
13434;BME280;6789;47.678;9.158;2023-04-04T02:49:21;97231.44;;;0.63;72.07
13434;BME280;6789;47.678;9.158;2023-04-04T02:54:13;97232.06;;;0.57;72.49
13434;BME280;6789;47.678;9.158;2023-04-04T02:59:05;97230.78;;;0.61;72.17
13434;BME280;6789;47.678;9.158;2023-04-04T03:03:57;97230.38;;;0.48;73.06
13434;BME280;6789;47.678;9.158;2023-04-04T03:08:49;97220.03;;;0.48;72.90
13434;BME280;6789;47.678;9.158;2023-04-04T03:13:41;97223.56;;;0.47;73.01
13434;BME280;6789;47.678;9.158;2023-04-04T03:18:33;97235.75;;;0.55;72.92
13434;BME280;6789;47.678;9.158;2023-04-04T03:23:25;97215.81;;;0.39;73.78
13434;BME280;6789;47.678;9.158;2023-04-04T03:28:17;97220.97;;;0.39;73.90
13434;BME280;6789;47.678;9.158;2023-04-04T03:33:08;97222.50;;;0.32;74.21
13434;BME280;6789;47.678;9.158;2023-04-04T03:38:00;97222.34;;;0.34;74.29
13434;BME280;6789;47.678;9.158;2023-04-04T03:42:53;97206.72;;;0.35;74.47
13434;BME280;6789;47.678;9.158;2023-04-04T03:47:45;97218.47;;;0.30;74.77
13434;BME280;6789;47.678;9.158;2023-04-04T03:52:37;97210.94;;;0.36;74.89
13434;BME280;6789;47.678;9.158;2023-04-04T03:57:32;97209.25;;;0.27;74.65
13434;BME280;6789;47.678;9.158;2023-04-04T04:02:24;97218.31;;;0.31;74.71
13434;BME280;6789;47.678;9.158;2023-04-04T04:07:19;97220.09;;;0.31;74.79
13434;BME280;6789;47.678;9.158;2023-04-04T04:12:11;97222.16;;;0.27;75.38
13434;BME280;6789;47.678;9.158;2023-04-04T04:17:03;97237.19;;;0.14;75.35
13434;BME280;6789;47.678;9.158;2023-04-04T04:21:56;97238.81;;;0.15;75.62
13434;BME280;6789;47.678;9.158;2023-04-04T04:26:47;97245.66;;;0.24;75.72
13434;BME280;6789;47.678;9.158;2023-04-04T04:31:39;97246.16;;;0.10;76.36
13434;BME280;6789;47.678;9.158;2023-04-04T04:36:32;97246.38;;;-0.01;76.58
13434;BME280;6789;47.678;9.158;2023-04-04T04:41:24;97242.78;;;0.10;76.06
13434;BME280;6789;47.678;9.158;2023-04-04T04:46:16;97265.09;;;0.01;76.34
13434;BME280;6789;47.678;9.158;2023-04-04T04:51:08;97257.72;;;0.06;76.56
13434;BME280;6789;47.678;9.158;2023-04-04T04:55:59;97254.94;;;0.00;76.44
13434;BME280;6789;47.678;9.158;2023-04-04T05:00:55;97275.47;;;0.09;76.78
13434;BME280;6789;47.678;9.158;2023-04-04T05:05:49;97259.78;;;0.03;77.07
13434;BME280;6789;47.678;9.158;2023-04-04T05:10:54;97256.94;;;0.06;77.44
13434;BME280;6789;47.678;9.158;2023-04-04T05:15:46;97250.38;;;0.71;74.73
13434;BME280;6789;47.678;9.158;2023-04-04T05:20:38;97254.13;;;1.36;70.99
13434;BME280;6789;47.678;9.158;2023-04-04T05:25:30;97255.53;;;1.63;69.75
13434;BME280;6789;47.678;9.158;2023-04-04T05:30:23;97258.00;;;1.73;68.50
13434;BME280;6789;47.678;9.158;2023-04-04T05:35:15;97255.53;;;2.36;66.42
13434;BME280;6789;47.678;9.158;2023-04-04T05:40:08;97255.19;;;2.15;68.47
13434;BME280;6789;47.678;9.158;2023-04-04T05:45:01;97264.72;;;3.10;64.80
13434;BME280;6789;47.678;9.158;2023-04-04T05:50:06;97267.44;;;3.63;61.31
13434;BME280;6789;47.678;9.158;2023-04-04T05:55:13;97276.94;;;4.17;59.85
13434;BME280;6789;47.678;9.158;2023-04-04T06:00:08;97283.66;;;3.65;60.18
13434;BME280;6789;47.678;9.158;2023-04-04T06:05:03;97276.91;;;3.56;60.48
13434;BME280;6789;47.678;9.158;2023-04-04T06:09:59;97289.75;;;3.80;61.04
13434;BME280;6789;47.678;9.158;2023-04-04T06:14:50;97280.75;;;3.68;60.11
13434;BME280;6789;47.678;9.158;2023-04-04T06:19:42;97282.34;;;3.15;61.47
13434;BME280;6789;47.678;9.158;2023-04-04T06:24:34;97285.91;;;3.22;61.77
13434;BME280;6789;47.678;9.158;2023-04-04T06:29:39;97286.31;;;3.49;61.84
13434;BME280;6789;47.678;9.158;2023-04-04T06:34:46;97295.78;;;3.02;61.59
13434;BME280;6789;47.678;9.158;2023-04-04T06:39:38;97309.63;;;2.14;64.34
13434;BME280;6789;47.678;9.158;2023-04-04T06:44:30;97304.78;;;2.11;64.92
13434;BME280;6789;47.678;9.158;2023-04-04T06:49:36;97307.19;;;1.97;66.14
13434;BME280;6789;47.678;9.158;2023-04-04T06:54:33;97302.59;;;1.83;67.63
13434;BME280;6789;47.678;9.158;2023-04-04T06:59:25;97307.81;;;1.91;65.77
13434;BME280;6789;47.678;9.158;2023-04-04T07:04:19;97297.59;;;1.81;66.17
13434;BME280;6789;47.678;9.158;2023-04-04T07:09:11;97293.03;;;2.16;64.75
13434;BME280;6789;47.678;9.158;2023-04-04T07:14:19;97300.88;;;1.99;65.31
13434;BME280;6789;47.678;9.158;2023-04-04T07:19:19;97293.19;;;2.23;65.25
13434;BME280;6789;47.678;9.158;2023-04-04T07:24:11;97288.66;;;2.25;64.87
13434;BME280;6789;47.678;9.158;2023-04-04T07:29:17;97296.44;;;2.41;63.29
13434;BME280;6789;47.678;9.158;2023-04-04T07:34:09;97298.22;;;2.40;62.97
13434;BME280;6789;47.678;9.158;2023-04-04T07:39:04;97282.84;;;2.39;63.89
13434;BME280;6789;47.678;9.158;2023-04-04T07:44:03;97281.25;;;2.62;62.26
13434;BME280;6789;47.678;9.158;2023-04-04T07:48:57;97276.25;;;2.76;61.30
13434;BME280;6789;47.678;9.158;2023-04-04T07:53:50;97284.50;;;2.80;61.18
13434;BME280;6789;47.678;9.158;2023-04-04T07:58:42;97288.19;;;2.61;61.27
13434;BME280;6789;47.678;9.158;2023-04-04T08:03:34;97286.91;;;2.81;59.99
13434;BME280;6789;47.678;9.158;2023-04-04T08:08:26;97277.84;;;2.93;60.58
13434;BME280;6789;47.678;9.158;2023-04-04T08:13:33;97274.72;;;3.21;59.10
13434;BME280;6789;47.678;9.158;2023-04-04T08:18:27;97283.81;;;3.09;57.94
13434;BME280;6789;47.678;9.158;2023-04-04T08:23:33;97279.72;;;3.23;57.42
13434;BME280;6789;47.678;9.158;2023-04-04T08:28:27;97271.44;;;3.35;57.11
13434;BME280;6789;47.678;9.158;2023-04-04T08:33:21;97274.59;;;3.61;57.71
13434;BME280;6789;47.678;9.158;2023-04-04T08:38:37;97275.28;;;3.55;55.74
13434;BME280;6789;47.678;9.158;2023-04-04T08:43:35;97286.69;;;3.30;55.84
13434;BME280;6789;47.678;9.158;2023-04-04T08:48:30;97285.84;;;3.46;56.15
13434;BME280;6789;47.678;9.158;2023-04-04T08:53:22;97279.31;;;3.57;56.20
13434;BME280;6789;47.678;9.158;2023-04-04T08:58:38;97271.88;;;3.93;55.27
13434;BME280;6789;47.678;9.158;2023-04-04T09:03:44;97282.75;;;3.88;54.13
13434;BME280;6789;47.678;9.158;2023-04-04T09:08:38;97284.09;;;3.76;55.26
13434;BME280;6789;47.678;9.158;2023-04-04T09:13:31;97273.03;;;4.13;53.85
13434;BME280;6789;47.678;9.158;2023-04-04T09:18:31;97267.72;;;4.59;53.02
13434;BME280;6789;47.678;9.158;2023-04-04T09:23:23;97269.72;;;4.49;50.94
13434;BME280;6789;47.678;9.158;2023-04-04T09:28:31;97270.41;;;4.43;51.20
13434;BME280;6789;47.678;9.158;2023-04-04T09:33:27;97254.66;;;4.67;51.39
13434;BME280;6789;47.678;9.158;2023-04-04T09:38:38;97267.38;;;4.62;50.71
13434;BME280;6789;47.678;9.158;2023-04-04T09:43:31;97262.56;;;4.73;49.89
13434;BME280;6789;47.678;9.158;2023-04-04T09:48:30;97268.50;;;4.82;49.37
13434;BME280;6789;47.678;9.158;2023-04-04T09:53:38;97272.94;;;4.95;47.93
13434;BME280;6789;47.678;9.158;2023-04-04T09:58:37;97268.34;;;4.97;48.71
13434;BME280;6789;47.678;9.158;2023-04-04T10:03:54;97277.06;;;5.19;47.46
13434;BME280;6789;47.678;9.158;2023-04-04T10:09:07;97266.13;;;5.09;47.54
13434;BME280;6789;47.678;9.158;2023-04-04T10:14:13;97266.91;;;4.95;47.60
13434;BME280;6789;47.678;9.158;2023-04-04T10:19:22;97264.66;;;5.43;47.80
13434;BME280;6789;47.678;9.158;2023-04-04T10:24:29;97270.00;;;5.27;47.06
13434;BME280;6789;47.678;9.158;2023-04-04T10:29:35;97259.53;;;5.50;47.37
13434;BME280;6789;47.678;9.158;2023-04-04T10:34:52;97263.94;;;5.49;45.58
13434;BME280;6789;47.678;9.158;2023-04-04T10:40:16;97257.75;;;5.36;47.17
13434;BME280;6789;47.678;9.158;2023-04-04T10:45:25;97269.91;;;5.21;45.74
13434;BME280;6789;47.678;9.158;2023-04-04T10:50:35;97259.19;;;5.24;46.66
13434;BME280;6789;47.678;9.158;2023-04-04T10:55:34;97255.75;;;5.52;46.50
13434;BME280;6789;47.678;9.158;2023-04-04T11:00:51;97251.72;;;5.93;46.10
13434;BME280;6789;47.678;9.158;2023-04-04T11:05:51;97268.59;;;5.68;44.11
13434;BME280;6789;47.678;9.158;2023-04-04T11:10:53;97260.78;;;5.82;44.63
13434;BME280;6789;47.678;9.158;2023-04-04T11:16:20;97254.59;;;5.69;45.65
13434;BME280;6789;47.678;9.158;2023-04-04T11:21:31;97262.50;;;5.61;45.58
13434;BME280;6789;47.678;9.158;2023-04-04T11:42:11;97245.00;;;5.98;42.48
13434;BME280;6789;47.678;9.158;2023-04-04T11:51:57;97231.63;;;6.64;43.72
13434;BME280;6789;47.678;9.158;2023-04-04T11:56:50;97235.91;;;6.30;43.27
13434;BME280;6789;47.678;9.158;2023-04-04T12:01:56;97220.72;;;6.33;44.63
13434;BME280;6789;47.678;9.158;2023-04-04T12:06:54;97221.78;;;6.38;43.52
13434;BME280;6789;47.678;9.158;2023-04-04T12:12:02;97206.97;;;6.39;42.65
13434;BME280;6789;47.678;9.158;2023-04-04T12:17:04;97225.75;;;6.35;42.28
13434;BME280;6789;47.678;9.158;2023-04-04T12:21:56;97228.41;;;6.41;42.82
13434;BME280;6789;47.678;9.158;2023-04-04T12:26:51;97231.56;;;6.37;43.16
13434;BME280;6789;47.678;9.158;2023-04-04T12:31:46;97250.59;;;6.37;45.21
13434;BME280;6789;47.678;9.158;2023-04-04T12:36:40;97230.50;;;6.10;44.90
13434;BME280;6789;47.678;9.158;2023-04-04T12:41:33;97226.59;;;6.41;44.66
13434;BME280;6789;47.678;9.158;2023-04-04T12:46:34;97220.06;;;6.73;45.05
13434;BME280;6789;47.678;9.158;2023-04-04T12:51:31;97213.84;;;6.95;45.02
13434;BME280;6789;47.678;9.158;2023-04-04T12:56:41;97226.47;;;6.70;43.55
13434;BME280;6789;47.678;9.158;2023-04-04T13:01:47;97224.50;;;6.31;44.98
13434;BME280;6789;47.678;9.158;2023-04-04T13:06:44;97236.38;;;6.54;43.18
13434;BME280;6789;47.678;9.158;2023-04-04T13:12:12;97226.00;;;6.60;43.98
13434;BME280;6789;47.678;9.158;2023-04-04T13:17:08;97217.84;;;6.70;43.80
13434;BME280;6789;47.678;9.158;2023-04-04T13:22:08;97210.56;;;6.86;42.17
13434;BME280;6789;47.678;9.158;2023-04-04T13:27:00;97213.53;;;6.83;43.18
13434;BME280;6789;47.678;9.158;2023-04-04T13:31:52;97212.53;;;7.11;43.79
13434;BME280;6789;47.678;9.158;2023-04-04T13:36:44;97208.16;;;6.85;43.63
13434;BME280;6789;47.678;9.158;2023-04-04T13:41:51;97207.97;;;6.86;44.26
13434;BME280;6789;47.678;9.158;2023-04-04T13:46:57;97201.44;;;6.97;43.00
13434;BME280;6789;47.678;9.158;2023-04-04T13:52:04;97204.06;;;6.76;42.76
13434;BME280;6789;47.678;9.158;2023-04-04T13:57:14;97202.97;;;6.91;43.08
13434;BME280;6789;47.678;9.158;2023-04-04T14:02:14;97205.03;;;6.96;41.63
13434;BME280;6789;47.678;9.158;2023-04-04T14:07:24;97194.72;;;7.15;41.33
13434;BME280;6789;47.678;9.158;2023-04-04T14:12:17;97209.94;;;7.11;41.89
13434;BME280;6789;47.678;9.158;2023-04-04T14:17:09;97214.63;;;6.95;42.85
13434;BME280;6789;47.678;9.158;2023-04-04T14:22:15;97193.66;;;6.76;42.48
13434;BME280;6789;47.678;9.158;2023-04-04T14:27:21;97196.72;;;7.13;42.11
13434;BME280;6789;47.678;9.158;2023-04-04T14:32:27;97192.34;;;7.20;42.18
13434;BME280;6789;47.678;9.158;2023-04-04T14:37:33;97197.94;;;7.17;41.26
13434;BME280;6789;47.678;9.158;2023-04-04T14:42:26;97194.78;;;6.94;41.87
13434;BME280;6789;47.678;9.158;2023-04-04T14:47:35;97193.16;;;7.20;41.16
13434;BME280;6789;47.678;9.158;2023-04-04T14:52:41;97196.34;;;7.16;40.95
13434;BME280;6789;47.678;9.158;2023-04-04T14:57:49;97197.56;;;6.93;42.46
13434;BME280;6789;47.678;9.158;2023-04-04T15:02:55;97191.00;;;6.97;41.37
13434;BME280;6789;47.678;9.158;2023-04-04T15:08:01;97191.53;;;7.19;41.59
13434;BME280;6789;47.678;9.158;2023-04-04T15:12:52;97210.69;;;7.06;40.01
13434;BME280;6789;47.678;9.158;2023-04-04T15:18:00;97191.22;;;7.02;40.36
13434;BME280;6789;47.678;9.158;2023-04-04T15:22:52;97191.31;;;7.14;41.53
13434;BME280;6789;47.678;9.158;2023-04-04T15:27:44;97186.25;;;7.07;40.35
13434;BME280;6789;47.678;9.158;2023-04-04T15:32:36;97184.63;;;7.06;40.60
13434;BME280;6789;47.678;9.158;2023-04-04T15:37:28;97192.22;;;7.01;41.93
13434;BME280;6789;47.678;9.158;2023-04-04T15:42:34;97195.56;;;6.88;41.16
13434;BME280;6789;47.678;9.158;2023-04-04T15:47:26;97191.84;;;7.04;41.56
13434;BME280;6789;47.678;9.158;2023-04-04T15:52:17;97187.03;;;7.07;42.10
13434;BME280;6789;47.678;9.158;2023-04-04T15:57:09;97187.78;;;6.95;42.00
13434;BME280;6789;47.678;9.158;2023-04-04T16:02:15;97196.47;;;6.81;40.24
13434;BME280;6789;47.678;9.158;2023-04-04T16:07:12;97197.34;;;6.88;41.00
13434;BME280;6789;47.678;9.158;2023-04-04T16:12:04;97194.94;;;6.86;42.33
13434;BME280;6789;47.678;9.158;2023-04-04T16:16:56;97198.66;;;6.77;41.13
13434;BME280;6789;47.678;9.158;2023-04-04T16:21:48;97194.09;;;6.86;42.00
13434;BME280;6789;47.678;9.158;2023-04-04T16:26:40;97197.63;;;6.72;42.41
13434;BME280;6789;47.678;9.158;2023-04-04T16:31:37;97193.72;;;6.61;42.01
13434;BME280;6789;47.678;9.158;2023-04-04T16:36:29;97199.50;;;6.57;42.00
13434;BME280;6789;47.678;9.158;2023-04-04T16:42:04;97197.66;;;6.51;41.98
13434;BME280;6789;47.678;9.158;2023-04-04T16:47:13;97194.25;;;6.50;42.39
13434;BME280;6789;47.678;9.158;2023-04-04T16:52:21;97197.41;;;6.46;42.89
13434;BME280;6789;47.678;9.158;2023-04-04T16:57:27;97197.00;;;6.49;43.95
13434;BME280;6789;47.678;9.158;2023-04-04T17:02:33;97188.22;;;6.50;44.19
13434;BME280;6789;47.678;9.158;2023-04-04T17:07:25;97188.97;;;6.44;44.36
13434;BME280;6789;47.678;9.158;2023-04-04T17:12:18;97193.19;;;6.24;43.51
13434;BME280;6789;47.678;9.158;2023-04-04T17:17:14;97185.38;;;6.24;44.36
13434;BME280;6789;47.678;9.158;2023-04-04T17:22:06;97197.03;;;6.07;44.98
13434;BME280;6789;47.678;9.158;2023-04-04T17:27:00;97197.81;;;6.08;44.01
13434;BME280;6789;47.678;9.158;2023-04-04T17:31:54;97190.69;;;5.95;44.90
13434;BME280;6789;47.678;9.158;2023-04-04T17:37:00;97191.97;;;5.85;46.20
13434;BME280;6789;47.678;9.158;2023-04-04T17:42:10;97192.69;;;5.79;46.79
13434;BME280;6789;47.678;9.158;2023-04-04T17:47:22;97181.59;;;5.56;46.72
13434;BME280;6789;47.678;9.158;2023-04-04T17:52:39;97188.88;;;5.46;46.19
13434;BME280;6789;47.678;9.158;2023-04-04T17:57:45;97181.72;;;5.34;47.11
13434;BME280;6789;47.678;9.158;2023-04-04T18:02:51;97183.78;;;5.24;47.22
13434;BME280;6789;47.678;9.158;2023-04-04T18:07:51;97189.06;;;5.16;47.63
13434;BME280;6789;47.678;9.158;2023-04-04T18:12:57;97200.38;;;5.08;47.47
13434;BME280;6789;47.678;9.158;2023-04-04T18:17:52;97190.84;;;5.01;47.88
13434;BME280;6789;47.678;9.158;2023-04-04T18:22:44;97188.31;;;4.93;48.78
13434;BME280;6789;47.678;9.158;2023-04-04T18:27:36;97195.13;;;4.80;49.09
13434;BME280;6789;47.678;9.158;2023-04-04T18:32:29;97202.75;;;4.81;49.51
13434;BME280;6789;47.678;9.158;2023-04-04T18:37:21;97203.53;;;4.67;49.85
13434;BME280;6789;47.678;9.158;2023-04-04T18:42:14;97209.78;;;4.58;50.15
13434;BME280;6789;47.678;9.158;2023-04-04T18:47:07;97205.28;;;4.52;50.74
13434;BME280;6789;47.678;9.158;2023-04-04T18:51:59;97210.72;;;4.43;50.92
13434;BME280;6789;47.678;9.158;2023-04-04T18:57:07;97220.59;;;4.47;51.33
13434;BME280;6789;47.678;9.158;2023-04-04T19:01:59;97227.34;;;4.34;52.25
13434;BME280;6789;47.678;9.158;2023-04-04T19:07:06;97228.69;;;4.22;52.42
13434;BME280;6789;47.678;9.158;2023-04-04T19:12:16;97227.91;;;4.22;52.67
13434;BME280;6789;47.678;9.158;2023-04-04T19:17:22;97229.63;;;4.07;53.32
13434;BME280;6789;47.678;9.158;2023-04-04T19:22:23;97236.19;;;3.95;54.08
13434;BME280;6789;47.678;9.158;2023-04-04T19:27:29;97233.25;;;3.98;53.52
13434;BME280;6789;47.678;9.158;2023-04-04T19:32:36;97233.00;;;3.85;54.09
13434;BME280;6789;47.678;9.158;2023-04-04T19:37:43;97233.31;;;3.82;54.85
13434;BME280;6789;47.678;9.158;2023-04-04T19:42:50;97243.41;;;3.77;53.69
13434;BME280;6789;47.678;9.158;2023-04-04T19:53:57;97231.50;;;3.60;54.00
13434;BME280;6789;47.678;9.158;2023-04-04T19:59:04;97240.59;;;3.56;53.75
13434;BME280;6789;47.678;9.158;2023-04-04T20:04:11;97235.09;;;3.51;54.22
13434;BME280;6789;47.678;9.158;2023-04-04T20:09:32;97235.09;;;3.51;53.42
13434;BME280;6789;47.678;9.158;2023-04-04T20:14:30;97230.28;;;3.40;54.40
13434;BME280;6789;47.678;9.158;2023-04-04T20:19:24;97233.34;;;3.44;53.44
13434;BME280;6789;47.678;9.158;2023-04-04T20:24:20;97233.69;;;3.41;53.47
13434;BME280;6789;47.678;9.158;2023-04-04T20:29:32;97240.03;;;3.30;54.15
13434;BME280;6789;47.678;9.158;2023-04-04T20:34:41;97234.03;;;3.30;53.49
13434;BME280;6789;47.678;9.158;2023-04-04T20:39:58;97237.16;;;3.25;54.61
13434;BME280;6789;47.678;9.158;2023-04-04T20:55:08;97248.81;;;3.21;55.26
13434;BME280;6789;47.678;9.158;2023-04-04T21:00:41;97237.53;;;3.06;55.02
13434;BME280;6789;47.678;9.158;2023-04-04T21:05:38;97240.91;;;2.99;55.82
13434;BME280;6789;47.678;9.158;2023-04-04T21:10:50;97232.19;;;3.00;55.77
13434;BME280;6789;47.678;9.158;2023-04-04T21:16:15;97237.84;;;2.95;55.80
13434;BME280;6789;47.678;9.158;2023-04-04T21:21:21;97243.38;;;2.84;56.35
13434;BME280;6789;47.678;9.158;2023-04-04T21:31:40;97238.19;;;2.77;57.80
13434;BME280;6789;47.678;9.158;2023-04-04T21:36:49;97235.00;;;2.67;57.16
13434;BME280;6789;47.678;9.158;2023-04-04T21:41:44;97238.06;;;2.70;57.85
13434;BME280;6789;47.678;9.158;2023-04-04T21:46:51;97239.19;;;2.68;57.54
13434;BME280;6789;47.678;9.158;2023-04-04T21:52:00;97241.13;;;2.74;57.05
13434;BME280;6789;47.678;9.158;2023-04-04T21:56:52;97244.03;;;2.79;58.03
13434;BME280;6789;47.678;9.158;2023-04-04T22:01:58;97240.47;;;2.72;58.00
13434;BME280;6789;47.678;9.158;2023-04-04T22:07:05;97231.25;;;2.77;56.35
13434;BME280;6789;47.678;9.158;2023-04-04T22:12:05;97240.00;;;2.76;57.21
13434;BME280;6789;47.678;9.158;2023-04-04T22:17:07;97239.03;;;2.69;57.70
13434;BME280;6789;47.678;9.158;2023-04-04T22:21:59;97236.91;;;2.73;57.36
13434;BME280;6789;47.678;9.158;2023-04-04T22:26:55;97232.56;;;2.65;57.76
13434;BME280;6789;47.678;9.158;2023-04-04T22:31:52;97230.59;;;2.67;57.27
13434;BME280;6789;47.678;9.158;2023-04-04T22:36:44;97233.53;;;2.72;57.06
13434;BME280;6789;47.678;9.158;2023-04-04T22:41:36;97238.22;;;2.69;56.88
13434;BME280;6789;47.678;9.158;2023-04-04T22:46:32;97233.84;;;2.69;56.07
13434;BME280;6789;47.678;9.158;2023-04-04T22:51:37;97229.16;;;2.65;56.76
13434;BME280;6789;47.678;9.158;2023-04-04T22:56:36;97225.94;;;2.63;56.94
13434;BME280;6789;47.678;9.158;2023-04-04T23:01:45;97220.72;;;2.71;57.07
13434;BME280;6789;47.678;9.158;2023-04-04T23:06:43;97218.31;;;2.69;56.08
13434;BME280;6789;47.678;9.158;2023-04-04T23:12:26;97228.66;;;2.69;56.68
13434;BME280;6789;47.678;9.158;2023-04-04T23:17:35;97232.06;;;2.78;56.55
13434;BME280;6789;47.678;9.158;2023-04-04T23:22:39;97236.91;;;2.81;56.79
13434;BME280;6789;47.678;9.158;2023-04-04T23:27:33;97228.84;;;2.76;56.86
13434;BME280;6789;47.678;9.158;2023-04-04T23:32:30;97223.34;;;2.63;57.68
13434;BME280;6789;47.678;9.158;2023-04-04T23:38:07;97220.56;;;2.80;56.63
13434;BME280;6789;47.678;9.158;2023-04-04T23:43:06;97215.06;;;2.75;56.73
13434;BME280;6789;47.678;9.158;2023-04-04T23:48:09;97216.22;;;2.65;56.20
13434;BME280;6789;47.678;9.158;2023-04-04T23:53:02;97213.31;;;2.52;57.15
13434;BME280;6789;47.678;9.158;2023-04-04T23:57:54;97210.72;;;2.52;56.20
